createdAt,value
2022-12-09T00:00:37.144Z,98391.81
2022-12-09T00:03:03.701Z,98405.88
2022-12-09T00:05:30.469Z,98398.06
2022-12-09T00:07:57.109Z,98397.19
2022-12-09T00:10:23.773Z,98386.63
2022-12-09T00:12:55.106Z,98401.66
2022-12-09T00:15:21.618Z,98385.06
2022-12-09T00:17:48.163Z,98376.63
2022-12-09T00:20:14.641Z,98375.25
2022-12-09T00:22:40.987Z,98382.56
2022-12-09T00:25:07.854Z,98383.69
2022-12-09T00:27:34.399Z,98379.50
2022-12-09T00:30:00.764Z,98379.50
2022-12-09T00:32:27.127Z,98387.41
2022-12-09T00:34:53.589Z,98385.72
2022-12-09T00:37:20.586Z,98380.09
2022-12-09T00:39:47.324Z,98374.09
2022-12-09T00:42:13.705Z,98379.38
2022-12-09T00:44:41.801Z,98377.78
2022-12-09T00:47:08.277Z,98375.25
2022-12-09T00:49:35.139Z,98373.56
2022-12-09T00:52:01.647Z,98375.47
2022-12-09T00:54:28.240Z,98369.97
2022-12-09T00:56:57.044Z,98367.53
2022-12-09T00:59:23.618Z,98371.03
2022-12-09T01:01:50.111Z,98370.91
2022-12-09T01:04:17.306Z,98368.06
2022-12-09T01:06:44.142Z,98363.00
2022-12-09T01:09:10.822Z,98364.47
2022-12-09T01:11:37.250Z,98366.56
2022-12-09T01:14:04.144Z,98363.94
2022-12-09T01:16:33.492Z,98370.91
2022-12-09T01:19:02.501Z,98363.19
2022-12-09T01:21:29.988Z,98362.06
2022-12-09T01:23:56.688Z,98368.91
2022-12-09T01:26:23.328Z,98367.22
2022-12-09T01:28:52.653Z,98374.28
2022-12-09T01:31:23.137Z,98367.34
2022-12-09T01:33:50.102Z,98372.63
2022-12-09T01:36:19.888Z,98369.97
2022-12-09T01:38:47.391Z,98372.50
2022-12-09T01:41:16.041Z,98366.47
2022-12-09T01:43:42.775Z,98373.34
2022-12-09T01:46:09.258Z,98370.19
2022-12-09T01:48:39.518Z,98364.56
2022-12-09T01:51:16.386Z,98364.69
2022-12-09T01:53:46.088Z,98363.84
2022-12-09T01:56:20.593Z,98362.38
2022-12-09T01:58:48.422Z,98366.88
2022-12-09T02:01:17.301Z,98356.44
2022-12-09T02:03:44.178Z,98361.72
2022-12-09T02:06:11.004Z,98358.44
2022-12-09T02:08:37.989Z,98356.75
2022-12-09T02:11:07.359Z,98351.78
2022-12-09T02:13:54.751Z,98355.38
2022-12-09T02:16:24.863Z,98351.69
2022-12-09T02:19:23.834Z,98349.97
2022-12-09T02:22:00.082Z,98349.88
2022-12-09T02:24:43.995Z,98353.38
2022-12-09T02:27:20.667Z,98345.69
2022-12-09T02:30:22.656Z,98343.13
2022-12-09T02:33:11.125Z,98339.84
2022-12-09T02:35:52.529Z,98343.13
2022-12-09T02:38:31.944Z,98333.63
2022-12-09T02:41:11.133Z,98335.13
2022-12-09T02:43:49.660Z,98340.59
2022-12-09T02:46:20.009Z,98338.38
2022-12-09T02:48:53.494Z,98335.94
2022-12-09T02:51:22.568Z,98334.44
2022-12-09T02:53:53.293Z,98332.78
2022-12-09T02:56:21.328Z,98332.25
2022-12-09T02:58:49.116Z,98330.84
2022-12-09T03:01:23.143Z,98323.03
2022-12-09T03:03:52.761Z,98329.81
2022-12-09T03:06:20.154Z,98325.38
2022-12-09T03:08:56.916Z,98322.63
2022-12-09T03:11:24.961Z,98327.06
2022-12-09T03:13:59.946Z,98328.53
2022-12-09T03:16:34.944Z,98327.91
2022-12-09T03:19:36.271Z,98322.97
2022-12-09T03:22:07.240Z,98318.41
2022-12-09T03:24:50.876Z,98323.47
2022-12-09T03:27:21.933Z,98312.28
2022-12-09T03:29:49.883Z,98305.94
2022-12-09T03:32:19.648Z,98318.72
2022-12-09T03:34:51.488Z,98301.94
2022-12-09T03:37:20.197Z,98306.06
2022-12-09T03:39:49.482Z,98306.91
2022-12-09T03:42:21.316Z,98301.53
2022-12-09T03:45:02.798Z,98298.78
2022-12-09T03:47:30.224Z,98298.78
2022-12-09T03:52:45.108Z,98310.50
2022-12-09T03:55:16.250Z,98303.31
2022-12-09T03:57:45.388Z,98304.34
2022-12-09T04:00:12.745Z,98298.34
2022-12-09T04:02:40.514Z,98296.66
2022-12-09T04:05:07.842Z,98295.91
2022-12-09T04:07:34.431Z,98297.72
2022-12-09T04:10:01.220Z,98292.25
2022-12-09T04:12:27.763Z,98290.53
2022-12-09T04:14:54.401Z,98295.19
2022-12-09T04:17:21.104Z,98287.38
2022-12-09T04:19:48.027Z,98295.72
2022-12-09T04:22:14.752Z,98297.31
2022-12-09T04:24:41.190Z,98286.09
2022-12-09T04:27:07.836Z,98290.75
2022-12-09T04:29:34.289Z,98289.16
2022-12-09T04:32:00.734Z,98282.09
2022-12-09T04:34:27.391Z,98279.97
2022-12-09T04:36:54.225Z,98283.16
2022-12-09T04:39:20.647Z,98277.00
2022-12-09T04:41:47.070Z,98285.06
2022-12-09T04:44:13.566Z,98284.72
2022-12-09T04:46:40.391Z,98284.81
2022-12-09T04:49:06.937Z,98286.31
2022-12-09T04:51:39.460Z,98287.06
2022-12-09T04:54:07.392Z,98286.09
2022-12-09T04:56:33.917Z,98280.19
2022-12-09T04:59:00.299Z,98279.91
2022-12-09T05:01:31.274Z,98280.63
2022-12-09T05:03:59.326Z,98276.41
2022-12-09T05:06:26.226Z,98281.00
2022-12-09T05:08:53.376Z,98278.03
2022-12-09T05:11:21.267Z,98280.25
2022-12-09T05:13:48.121Z,98275.09
2022-12-09T05:16:17.479Z,98280.91
2022-12-09T05:18:46.533Z,98283.84
2022-12-09T05:21:15.939Z,98273.50
2022-12-09T05:23:43.259Z,98274.66
2022-12-09T05:26:13.139Z,98284.56
2022-12-09T05:28:40.226Z,98276.94
2022-12-09T05:31:15.826Z,98282.59
2022-12-09T05:33:43.544Z,98269.53
2022-12-09T05:36:11.906Z,98269.94
2022-12-09T05:38:39.208Z,98274.38
2022-12-09T05:41:06.020Z,98263.16
2022-12-09T05:43:33.980Z,98270.97
2022-12-09T05:46:01.867Z,98258.22
2022-12-09T05:48:29.426Z,98256.72
2022-12-09T05:51:08.660Z,98250.91
2022-12-09T05:53:36.045Z,98254.50
2022-12-09T05:56:03.141Z,98245.41
2022-12-09T05:58:29.773Z,98252.56
2022-12-09T06:00:57.942Z,98250.31
2022-12-09T06:03:25.136Z,98246.63
2022-12-09T06:05:52.246Z,98252.69
2022-12-09T06:08:19.615Z,98243.84
2022-12-09T06:10:46.296Z,98252.88
2022-12-09T06:13:14.008Z,98250.41
2022-12-09T06:15:40.920Z,98251.88
2022-12-09T06:18:07.551Z,98253.41
2022-12-09T06:20:34.282Z,98253.41
2022-12-09T06:23:00.731Z,98250.97
2022-12-09T06:25:27.274Z,98254.44
2022-12-09T06:27:53.899Z,98252.84
2022-12-09T06:30:21.006Z,98247.28
2022-12-09T06:32:47.750Z,98252.66
2022-12-09T06:35:15.399Z,98252.03
2022-12-09T06:37:42.361Z,98249.47
2022-12-09T06:40:09.432Z,98248.72
2022-12-09T06:42:36.330Z,98253.41
2022-12-09T06:45:03.298Z,98251.09
2022-12-09T06:47:29.776Z,98244.69
2022-12-09T06:50:02.713Z,98250.69
2022-12-09T06:52:32.885Z,98243.44
2022-12-09T06:54:59.446Z,98252.09
2022-12-09T06:57:26.249Z,98258.84
2022-12-09T06:59:53.087Z,98250.03
2022-12-09T07:02:19.759Z,98244.00
2022-12-09T07:04:47.039Z,98248.72
2022-12-09T07:07:15.136Z,98258.59
2022-12-09T07:09:41.974Z,98253.66
2022-12-09T07:12:08.629Z,98257.94
2022-12-09T07:14:36.914Z,98253.66
2022-12-09T07:17:03.989Z,98257.59
2022-12-09T07:19:31.364Z,98257.44
2022-12-09T07:21:58.053Z,98251.63
2022-12-09T07:24:25.391Z,98264.13
2022-12-09T07:26:52.660Z,98256.50
2022-12-09T07:29:19.473Z,98263.75
2022-12-09T07:31:47.659Z,98254.16
2022-12-09T07:34:14.501Z,98261.22
2022-12-09T07:36:41.411Z,98268.38
2022-12-09T07:39:12.184Z,98264.03
2022-12-09T07:41:39.359Z,98269.03
2022-12-09T07:44:06.256Z,98263.72
2022-12-09T07:46:33.330Z,98280.56
2022-12-09T07:49:02.928Z,98274.19
2022-12-09T07:51:30.295Z,98275.34
2022-12-09T07:53:57.287Z,98273.81
2022-12-09T07:56:24.898Z,98276.06
2022-12-09T07:58:53.396Z,98266.31
2022-12-09T08:01:26.784Z,98267.06
2022-12-09T08:03:54.710Z,98273.16
2022-12-09T08:06:24.667Z,98264.63
2022-12-09T08:08:52.066Z,98270.72
2022-12-09T08:11:24.431Z,98269.88
2022-12-09T08:13:52.375Z,98261.81
2022-12-09T08:16:21.464Z,98265.25
2022-12-09T08:18:48.828Z,98263.88
2022-12-09T08:21:18.950Z,98273.34
2022-12-09T08:23:50.167Z,98269.31
2022-12-09T08:26:19.915Z,98274.94
2022-12-09T08:28:46.820Z,98273.06
2022-12-09T08:31:16.846Z,98279.06
2022-12-09T08:33:44.141Z,98275.34
2022-12-09T08:36:13.843Z,98274.28
2022-12-09T08:38:41.389Z,98283.00
2022-12-09T08:41:17.577Z,98274.94
2022-12-09T08:43:45.041Z,98280.94
2022-12-09T08:46:12.915Z,98274.38
2022-12-09T08:48:41.713Z,98276.78
2022-12-09T08:51:10.616Z,98272.13
2022-12-09T08:53:37.116Z,98280.75
2022-12-09T08:56:14.789Z,98281.31
2022-12-09T08:58:42.360Z,98285.84
2022-12-09T09:01:15.885Z,98281.31
2022-12-09T09:03:43.922Z,98276.16
2022-12-09T09:06:11.470Z,98273.41
2022-12-09T09:08:39.644Z,98280.94
2022-12-09T09:11:18.107Z,98283.22
2022-12-09T09:13:48.069Z,98285.47
2022-12-09T09:16:18.413Z,98281.59
2022-12-09T09:18:45.772Z,98283.91
2022-12-09T09:21:14.689Z,98289.00
2022-12-09T09:23:42.228Z,98288.44
2022-12-09T09:26:15.160Z,98285.34
2022-12-09T09:28:41.977Z,98286.97
2022-12-09T09:31:14.425Z,98295.44
2022-12-09T09:33:41.768Z,98285.84
2022-12-09T09:36:11.651Z,98291.84
2022-12-09T09:38:38.735Z,98292.69
2022-12-09T09:41:40.207Z,98289.59
2022-12-09T09:44:19.677Z,98289.66
2022-12-09T09:46:50.824Z,98291.16
2022-12-09T09:49:36.617Z,98286.53
2022-12-09T09:52:14.503Z,98284.28
2022-12-09T09:54:41.009Z,98281.09
2022-12-09T09:57:31.318Z,98279.09
2022-12-09T10:00:11.313Z,98279.22
2022-12-09T10:02:52.720Z,98283.72
2022-12-09T10:05:25.468Z,98279.94
2022-12-09T10:07:59.285Z,98273.41
2022-12-09T10:10:26.058Z,98276.03
2022-12-09T10:12:55.381Z,98273.41
2022-12-09T10:16:03.020Z,98270.13
2022-12-09T10:18:42.507Z,98268.84
2022-12-09T10:21:17.373Z,98267.56
2022-12-09T10:23:46.024Z,98265.06
2022-12-09T10:26:21.102Z,98258.34
2022-12-09T10:28:54.150Z,98253.06
2022-12-09T10:31:21.052Z,98251.78
2022-12-09T10:33:48.988Z,98253.69
2022-12-09T10:36:28.245Z,98253.53
2022-12-09T10:38:57.500Z,98249.13
2022-12-09T10:42:06.253Z,98239.44
2022-12-09T10:44:33.426Z,98242.97
2022-12-09T10:47:04.197Z,98242.53
2022-12-09T10:49:33.321Z,98236.56
2022-12-09T10:52:00.840Z,98246.06
2022-12-09T10:54:27.666Z,98233.09
2022-12-09T10:57:05.056Z,98236.91
2022-12-09T10:59:32.785Z,98227.00
2022-12-09T11:02:08.833Z,98237.13
2022-12-09T11:04:41.969Z,98223.84
2022-12-09T11:07:11.935Z,98230.69
2022-12-09T11:09:56.238Z,98233.34
2022-12-09T11:12:31.964Z,98227.78
2022-12-09T11:15:25.056Z,98222.25
2022-12-09T11:18:16.102Z,98219.19
2022-12-09T11:20:43.177Z,98223.94
2022-12-09T11:23:12.475Z,98220.91
2022-12-09T11:25:58.739Z,98213.72
2022-12-09T11:28:27.693Z,98212.44
2022-12-09T11:33:54.255Z,98203.13
2022-12-09T11:36:25.544Z,98205.44
2022-12-09T11:39:19.438Z,98195.81
2022-12-09T11:42:16.452Z,98188.97
2022-12-09T11:45:06.738Z,98191.31
2022-12-09T11:48:20.213Z,98183.91
2022-12-09T11:50:32.604Z,98181.47
2022-12-09T11:53:11.086Z,98183.56
2022-12-09T11:55:49.271Z,98177.94
2022-12-09T11:58:21.212Z,98169.03
2022-12-09T12:01:02.756Z,98169.84
2022-12-09T12:03:42.241Z,98169.97
2022-12-09T12:06:18.126Z,98168.44
2022-12-09T12:09:07.420Z,98172.09
2022-12-09T12:11:44.475Z,98163.84
2022-12-09T12:14:18.892Z,98170.47
2022-12-09T12:17:04.656Z,98167.91
2022-12-09T12:19:34.905Z,98164.91
2022-12-09T12:22:19.933Z,98152.97
2022-12-09T12:24:52.148Z,98159.16
2022-12-09T12:27:45.539Z,98152.22
2022-12-09T12:30:18.919Z,98155.47
2022-12-09T12:36:22.793Z,98150.00
2022-12-09T12:39:25.322Z,98147.38
2022-12-09T12:42:05.253Z,98148.47
2022-12-09T12:45:05.705Z,98146.06
2022-12-09T12:47:47.767Z,98132.84
2022-12-09T12:50:43.227Z,98129.34
2022-12-09T12:53:19.006Z,98129.84
2022-12-09T12:56:00.731Z,98125.75
2022-12-09T12:59:04.969Z,98119.97
2022-12-09T13:01:41.992Z,98125.16
2022-12-09T13:04:23.927Z,98117.69
2022-12-09T13:07:41.146Z,98116.59
2022-12-09T13:10:20.012Z,98121.91
2022-12-09T13:12:54.085Z,98113.72
2022-12-09T13:15:37.761Z,98115.50
2022-12-09T13:18:14.463Z,98125.72
2022-12-09T13:20:51.069Z,98130.50
2022-12-09T13:23:32.934Z,98127.88
2022-12-09T13:26:17.640Z,98125.34
2022-12-09T13:28:57.477Z,98132.28
2022-12-09T13:31:34.233Z,98132.91
2022-12-09T13:34:36.241Z,98140.50
2022-12-09T13:37:02.820Z,98133.28
2022-12-09T13:39:41.519Z,98133.53
2022-12-09T13:42:46.263Z,98134.81
2022-12-09T13:45:25.066Z,98146.25
2022-12-09T13:47:55.846Z,98134.72
2022-12-09T13:50:28.404Z,98129.06
2022-12-09T13:53:01.885Z,98141.09
2022-12-09T13:55:36.369Z,98140.41
2022-12-09T13:58:30.098Z,98147.88
2022-12-09T14:01:04.308Z,98151.63
2022-12-09T14:03:34.765Z,98140.31
2022-12-09T14:06:18.016Z,98143.94
2022-12-09T14:08:49.764Z,98144.28
2022-12-09T14:11:28.018Z,98138.50
2022-12-09T14:14:23.018Z,98145.25
2022-12-09T14:17:03.870Z,98142.09
2022-12-09T14:19:48.564Z,98143.16
2022-12-09T14:22:23.917Z,98144.75
2022-12-09T14:24:51.816Z,98147.97
2022-12-09T14:27:24.370Z,98148.81
2022-12-09T14:29:52.567Z,98152.38
2022-12-09T14:32:30.949Z,98155.84
2022-12-09T14:35:09.414Z,98160.13
2022-12-09T14:37:42.314Z,98163.56
2022-12-09T14:40:14.799Z,98169.03
2022-12-09T14:42:53.123Z,98169.47
2022-12-09T14:45:28.406Z,98167.50
2022-12-09T14:47:56.060Z,98183.94
2022-12-09T14:50:24.442Z,98175.81
2022-12-09T14:52:52.763Z,98177.22
2022-12-09T14:55:23.394Z,98174.28
2022-12-09T14:57:51.142Z,98188.97
2022-12-09T15:00:32.654Z,98182.66
2022-12-09T15:03:31.330Z,98181.41
2022-12-09T15:06:11.939Z,98180.13
2022-12-09T15:08:40.539Z,98189.88
2022-12-09T15:11:23.855Z,98192.31
2022-12-09T15:13:52.384Z,98189.16
2022-12-09T15:16:22.998Z,98183.34
2022-12-09T15:18:51.290Z,98189.69
2022-12-09T15:21:31.572Z,98198.53
2022-12-09T15:24:00.398Z,98199.56
2022-12-09T15:26:32.860Z,98197.16
2022-12-09T15:29:00.919Z,98191.13
2022-12-09T15:31:30.000Z,98197.38
2022-12-09T15:33:59.737Z,98198.31
2022-12-09T15:36:32.542Z,98191.47
2022-12-09T15:39:32.181Z,98199.47
2022-12-09T15:42:21.979Z,98198.94
2022-12-09T15:45:11.595Z,98199.34
2022-12-09T15:47:54.817Z,98193.53
2022-12-09T15:50:32.185Z,98199.97
2022-12-09T15:53:17.584Z,98204.38
2022-12-09T15:56:04.099Z,98199.94
2022-12-09T15:58:38.407Z,98195.09
2022-12-09T16:01:05.296Z,98202.34
2022-12-09T16:03:33.788Z,98197.38
2022-12-09T16:06:04.438Z,98192.53
2022-12-09T16:08:35.242Z,98204.59
2022-12-09T16:11:02.192Z,98211.09
2022-12-09T16:13:28.695Z,98208.00
2022-12-09T16:15:57.411Z,98210.97
2022-12-09T16:18:49.752Z,98208.53
2022-12-09T16:21:16.110Z,98206.28
2022-12-09T16:23:46.932Z,98202.16
2022-12-09T16:26:31.992Z,98208.34
2022-12-09T16:29:05.113Z,98211.94
2022-12-09T16:31:31.946Z,98213.84
2022-12-09T16:33:58.581Z,98211.41
2022-12-09T16:36:27.860Z,98214.03
2022-12-09T16:39:09.450Z,98208.75
2022-12-09T16:42:19.259Z,98207.06
2022-12-09T16:44:45.615Z,98204.31
2022-12-09T16:47:16.212Z,98210.44
2022-12-09T16:49:46.034Z,98206.78
2022-12-09T16:52:26.388Z,98208.75
2022-12-09T16:54:52.799Z,98216.84
2022-12-09T16:57:20.284Z,98212.59
2022-12-09T16:59:47.274Z,98219.66
2022-12-09T17:02:32.963Z,98219.66
2022-12-09T17:05:00.545Z,98216.84
2022-12-09T17:07:26.933Z,98228.13
2022-12-09T17:09:53.306Z,98227.66
2022-12-09T17:12:19.778Z,98225.19
2022-12-09T17:14:46.231Z,98222.28
2022-12-09T17:17:12.659Z,98220.59
2022-12-09T17:19:41.870Z,98224.91
2022-12-09T17:22:08.311Z,98217.66
2022-12-09T17:24:34.736Z,98223.97
2022-12-09T17:27:01.140Z,98216.59
2022-12-09T17:29:27.791Z,98219.88
2022-12-09T17:31:54.298Z,98220.63
2022-12-09T17:34:20.782Z,98218.75
2022-12-09T17:36:47.492Z,98230.78
2022-12-09T17:39:14.801Z,98225.31
2022-12-09T17:41:42.466Z,98227.88
2022-12-09T17:44:10.169Z,98230.50
2022-12-09T17:46:36.620Z,98232.34
2022-12-09T17:49:03.125Z,98249.13
2022-12-09T17:51:35.408Z,98244.94
2022-12-09T17:54:02.930Z,98255.69
2022-12-09T17:56:29.410Z,98255.13
2022-12-09T17:58:58.323Z,98255.03
2022-12-09T18:01:25.326Z,98265.19
2022-12-09T18:03:56.458Z,98265.06
2022-12-09T18:06:27.533Z,98267.50
2022-12-09T18:08:54.618Z,98274.47
2022-12-09T18:11:22.289Z,98277.84
2022-12-09T18:13:48.992Z,98284.81
2022-12-09T18:16:16.170Z,98276.69
2022-12-09T18:18:43.112Z,98279.13
2022-12-09T18:21:15.329Z,98281.69
2022-12-09T18:23:42.769Z,98280.09
2022-12-09T18:26:11.636Z,98281.69
2022-12-09T18:28:38.877Z,98286.31
2022-12-09T18:31:07.712Z,98285.00
2022-12-09T18:33:34.635Z,98289.63
2022-12-09T18:36:06.085Z,98287.00
2022-12-09T18:38:32.451Z,98294.81
2022-12-09T18:41:01.475Z,98285.19
2022-12-09T18:43:35.935Z,98286.25
2022-12-09T18:46:08.642Z,98292.38
2022-12-09T18:48:36.028Z,98293.28
2022-12-09T18:51:03.263Z,98293.16
2022-12-09T18:53:30.135Z,98299.06
2022-12-09T18:55:56.597Z,98295.56
2022-12-09T18:58:36.778Z,98294.16
2022-12-09T19:01:27.876Z,98296.34
2022-12-09T19:03:57.211Z,98297.28
2022-12-09T19:06:26.812Z,98301.25
2022-12-09T19:08:57.398Z,98294.31
2022-12-09T19:11:26.744Z,98297.13
2022-12-09T19:13:53.993Z,98297.69
2022-12-09T19:16:21.603Z,98295.44
2022-12-09T19:18:48.662Z,98295.81
2022-12-09T19:21:18.166Z,98303.13
2022-12-09T19:23:45.961Z,98297.28
2022-12-09T19:26:27.448Z,98297.69
2022-12-09T19:28:59.409Z,98303.31
2022-12-09T19:31:31.477Z,98300.75
2022-12-09T19:34:01.870Z,98304.59
2022-12-09T19:36:31.097Z,98309.47
2022-12-09T19:38:58.192Z,98308.72
2022-12-09T19:41:24.747Z,98305.50
2022-12-09T19:43:55.883Z,98322.41
2022-12-09T19:46:22.866Z,98322.41
2022-12-09T19:48:49.517Z,98318.16
2022-12-09T19:51:17.640Z,98319.09
2022-12-09T19:53:44.671Z,98315.63
2022-12-09T19:56:13.550Z,98321.06
2022-12-09T19:58:41.462Z,98315.81
2022-12-09T20:01:20.354Z,98321.16
2022-12-09T20:03:49.670Z,98322.19
2022-12-09T20:06:18.388Z,98323.56
2022-12-09T20:08:45.795Z,98319.53
2022-12-09T20:11:15.394Z,98320.78
2022-12-09T20:13:42.699Z,98325.66
2022-12-09T20:16:12.149Z,98329.38
2022-12-09T20:18:38.942Z,98325.56
2022-12-09T20:21:08.184Z,98329.91
2022-12-09T20:23:36.354Z,98338.09
2022-12-09T20:26:08.136Z,98334.72
2022-12-09T20:28:36.620Z,98336.22
2022-12-09T20:31:11.299Z,98338.28
2022-12-09T20:33:38.293Z,98338.53
2022-12-09T20:36:17.927Z,98345.38
2022-12-09T20:38:49.418Z,98345.66
2022-12-09T20:41:16.363Z,98346.16
2022-12-09T20:43:44.370Z,98336.75
2022-12-09T20:46:13.883Z,98344.72
2022-12-09T20:48:40.662Z,98352.44
2022-12-09T20:51:21.584Z,98348.63
2022-12-09T20:53:49.195Z,98347.66
2022-12-09T20:56:17.499Z,98339.47
2022-12-09T20:58:45.355Z,98352.59
2022-12-09T21:01:20.136Z,98344.88
2022-12-09T21:03:47.781Z,98349.38
2022-12-09T21:06:16.255Z,98353.00
2022-12-09T21:08:43.356Z,98348.09
2022-12-09T21:11:16.431Z,98350.59
2022-12-09T21:13:46.004Z,98345.63
2022-12-09T21:16:16.099Z,98343.91
2022-12-09T21:18:43.434Z,98349.22
2022-12-09T21:21:10.059Z,98350.94
2022-12-09T21:23:37.396Z,98354.16
2022-12-09T21:26:09.829Z,98354.25
2022-12-09T21:28:37.920Z,98345.94
2022-12-09T21:31:13.583Z,98348.56
2022-12-09T21:33:41.692Z,98346.09
2022-12-09T21:36:13.726Z,98343.56
2022-12-09T21:38:40.551Z,98348.38
2022-12-09T21:41:13.218Z,98358.00
2022-12-09T21:43:39.856Z,98346.13
2022-12-09T21:46:12.387Z,98356.78
2022-12-09T21:48:39.677Z,98359.41
2022-12-09T21:51:10.864Z,98355.19
2022-12-09T21:53:37.828Z,98360.41
2022-12-09T21:56:11.830Z,98359.75
2022-12-09T21:58:38.595Z,98365.75
2022-12-09T22:01:20.079Z,98365.59
2022-12-09T22:03:48.207Z,98378.00
2022-12-09T22:06:17.778Z,98365.97
2022-12-09T22:08:44.762Z,98373.16
2022-12-09T22:11:14.452Z,98364.81
2022-12-09T22:13:41.259Z,98378.41
2022-12-09T22:16:17.471Z,98384.47
2022-12-09T22:18:44.406Z,98378.56
2022-12-09T22:21:24.752Z,98387.66
2022-12-09T22:23:57.883Z,98390.28
2022-12-09T22:26:26.030Z,98392.13
2022-12-09T22:28:53.433Z,98386.06
2022-12-09T22:31:22.989Z,98392.06
2022-12-09T22:33:51.677Z,98393.84
2022-12-09T22:36:18.998Z,98395.53
2022-12-09T22:38:45.740Z,98393.72
2022-12-09T22:41:23.764Z,98396.22
2022-12-09T22:43:51.065Z,98398.97
2022-12-09T22:46:23.263Z,98393.66
2022-12-09T22:48:49.883Z,98393.72
2022-12-09T22:51:20.712Z,98393.84
2022-12-09T22:53:49.044Z,98396.53
2022-12-09T22:56:16.062Z,98401.84
2022-12-09T22:58:42.472Z,98401.22
2022-12-09T23:01:14.017Z,98401.38
2022-12-09T23:03:41.131Z,98409.31
2022-12-09T23:06:08.417Z,98405.22
2022-12-09T23:08:36.212Z,98406.13
2022-12-09T23:11:05.104Z,98402.75
2022-12-09T23:13:33.902Z,98402.66
2022-12-09T23:16:05.447Z,98408.19
2022-12-09T23:18:34.052Z,98402.13
2022-12-09T23:21:11.488Z,98414.53
2022-12-09T23:23:38.341Z,98411.69
2022-12-09T23:26:07.316Z,98414.31
2022-12-09T23:28:38.356Z,98415.84
2022-12-09T23:31:07.196Z,98424.78
2022-12-09T23:33:34.882Z,98420.53
2022-12-09T23:36:09.239Z,98420.91
2022-12-09T23:38:36.213Z,98419.59
2022-12-09T23:41:03.486Z,98415.31
2022-12-09T23:43:34.466Z,98416.41
2022-12-09T23:46:11.407Z,98415.47
2022-12-09T23:48:41.478Z,98422.28
2022-12-09T23:51:17.115Z,98417.16
2022-12-09T23:53:45.054Z,98412.72
2022-12-09T23:56:16.437Z,98413.72
2022-12-09T23:58:43.187Z,98412.78
